createdAt,value
2022-11-29T00:00:55.253Z,22.27
2022-11-29T00:04:57.513Z,25.77
2022-11-29T00:09:08.246Z,24.93
2022-11-29T00:13:10.272Z,24.63
2022-11-29T00:17:12.234Z,24.63
2022-11-29T00:21:14.514Z,26.57
2022-11-29T00:25:16.667Z,23.57
2022-11-29T00:29:24.371Z,25.10
2022-11-29T00:33:26.343Z,24.33
2022-11-29T00:37:32.646Z,26.43
2022-11-29T00:41:36.432Z,26.20
2022-11-29T00:45:38.641Z,27.13
2022-11-29T00:49:43.156Z,28.20
2022-11-29T00:53:45.227Z,26.30
2022-11-29T00:57:50.891Z,27.00
2022-11-29T01:01:58.111Z,26.77
2022-11-29T01:06:11.259Z,29.37
2022-11-29T01:10:22.712Z,25.60
2022-11-29T01:15:13.464Z,28.80
2022-11-29T01:19:36.243Z,28.80
2022-11-29T01:23:41.315Z,30.67
2022-11-29T01:27:45.650Z,28.50
2022-11-29T01:31:53.946Z,29.10
2022-11-29T01:35:56.051Z,31.67
2022-11-29T01:39:59.303Z,29.20
2022-11-29T01:44:29.287Z,28.67
2022-11-29T01:49:12.968Z,30.00
2022-11-29T01:53:34.846Z,29.17
2022-11-29T01:57:37.415Z,28.70
2022-11-29T02:01:59.803Z,32.60
2022-11-29T02:06:26.903Z,29.30
2022-11-29T02:11:07.904Z,32.20
2022-11-29T02:15:51.539Z,31.20
2022-11-29T02:20:38.759Z,27.13
2022-11-29T02:25:36.452Z,32.83
2022-11-29T02:30:07.137Z,30.50
2022-11-29T02:34:39.936Z,33.60
2022-11-29T02:39:04.497Z,32.43
2022-11-29T02:43:32.810Z,32.27
2022-11-29T02:47:55.876Z,30.87
2022-11-29T02:52:04.576Z,30.40
2022-11-29T02:56:23.952Z,33.17
2022-11-29T03:00:38.158Z,35.40
2022-11-29T03:05:00.908Z,32.70
2022-11-29T03:09:51.817Z,33.53
2022-11-29T03:14:03.832Z,32.73
2022-11-29T03:19:15.836Z,37.53
2022-11-29T03:24:10.760Z,35.63
2022-11-29T03:28:36.714Z,37.53
2022-11-29T03:33:03.184Z,36.57
2022-11-29T03:37:30.019Z,36.77
2022-11-29T03:41:52.189Z,36.03
2022-11-29T03:46:03.826Z,34.47
2022-11-29T03:50:16.378Z,36.17
2022-11-29T03:55:22.841Z,36.87
2022-11-29T04:00:12.746Z,32.50
2022-11-29T04:09:56.171Z,32.73
2022-11-29T04:14:24.749Z,30.67
2022-11-29T04:18:56.615Z,31.37
2022-11-29T04:24:06.437Z,30.73
2022-11-29T04:28:48.989Z,29.70
2022-11-29T04:33:14.113Z,31.43
2022-11-29T04:42:57.840Z,32.73
2022-11-29T04:53:35.527Z,32.03
2022-11-29T05:03:57.598Z,29.63
2022-11-29T05:08:39.671Z,32.73
2022-11-29T05:13:13.462Z,30.70
2022-11-29T05:18:46.074Z,29.67
2022-11-29T05:23:43.729Z,31.10
2022-11-29T05:28:40.776Z,28.53
2022-11-29T05:34:10.027Z,29.80
2022-11-29T05:38:34.207Z,31.70
2022-11-29T05:43:26.292Z,27.63
2022-11-29T05:47:42.567Z,25.17
2022-11-29T05:53:29.018Z,29.20
2022-11-29T05:57:46.809Z,27.53
2022-11-29T06:02:34.701Z,27.40
2022-11-29T06:07:17.878Z,25.83
2022-11-29T06:12:55.872Z,23.43
2022-11-29T06:18:13.587Z,26.67
2022-11-29T07:21:35.127Z,26.50
2022-11-29T07:31:37.109Z,26.63
2022-11-29T07:36:33.625Z,27.03
2022-11-29T07:40:37.787Z,28.97
2022-11-29T07:45:30.922Z,26.63
2022-11-29T07:49:35.825Z,23.67
2022-11-29T07:53:44.172Z,28.10
2022-11-29T07:58:09.827Z,25.17
2022-11-29T08:02:15.200Z,23.67
2022-11-29T08:06:56.334Z,24.90
2022-11-29T08:11:05.916Z,24.60
2022-11-29T08:15:28.258Z,26.10
2022-11-29T08:25:55.638Z,23.13
2022-11-29T08:29:59.668Z,26.27
2022-11-29T08:34:06.967Z,23.03
2022-11-29T08:38:11.301Z,21.13
2022-11-29T08:47:47.971Z,21.77
2022-11-29T08:52:12.907Z,22.03
2022-11-29T09:00:59.981Z,19.87
2022-11-29T09:05:22.344Z,20.37
2022-11-29T09:09:32.512Z,22.33
2022-11-29T09:14:17.808Z,18.40
2022-11-29T09:18:48.510Z,20.33
2022-11-29T09:23:16.429Z,17.80
2022-11-29T09:27:24.530Z,18.00
2022-11-29T09:32:09.482Z,19.33
2022-11-29T09:36:16.576Z,18.37
2022-11-29T09:40:34.621Z,18.90
2022-11-29T09:45:11.864Z,17.33
2022-11-29T09:49:51.548Z,16.50
2022-11-29T09:55:36.536Z,15.97
2022-11-29T10:00:49.820Z,17.20
2022-11-29T10:06:07.618Z,19.93
2022-11-29T10:11:50.553Z,17.87
2022-11-29T10:21:57.077Z,19.97
2022-11-29T10:26:04.032Z,18.50
2022-11-29T12:06:03.267Z,21.40
2022-11-29T12:15:38.753Z,22.00
2022-11-29T12:20:47.916Z,20.30
2022-11-29T12:25:02.895Z,18.87
2022-11-29T12:34:47.906Z,23.33
2022-11-29T12:39:50.837Z,19.87
2022-11-29T12:56:43.205Z,19.53
2022-11-29T13:01:41.630Z,27.30
2022-11-29T13:07:00.483Z,24.10
2022-11-29T13:17:54.392Z,24.37
2022-11-29T13:29:12.580Z,23.03
2022-11-29T13:34:37.923Z,24.17
2022-11-29T13:45:14.330Z,23.53
2022-11-29T13:50:11.385Z,24.40
2022-11-29T13:55:14.451Z,26.37
2022-11-29T14:11:29.012Z,27.43
2022-11-29T14:15:36.479Z,26.73
2022-11-29T14:53:07.824Z,28.43
2022-11-29T15:03:18.117Z,24.70
2022-11-29T15:07:29.622Z,25.57
2022-11-29T15:12:09.549Z,27.80
2022-11-29T15:17:05.082Z,26.50
2022-11-29T15:26:22.963Z,28.63
2022-11-29T15:50:35.716Z,27.57
2022-11-29T15:55:50.475Z,27.33
2022-11-29T16:00:48.729Z,26.43
2022-11-29T16:42:58.656Z,28.87
2022-11-29T16:48:38.002Z,33.17
2022-11-29T16:53:12.821Z,29.57
2022-11-29T16:58:25.640Z,31.80
2022-11-29T17:03:46.018Z,28.60
2022-11-29T19:11:46.944Z,34.77
2022-11-29T19:15:56.089Z,34.93
2022-11-29T19:20:22.865Z,35.13
2022-11-29T19:24:26.826Z,36.27
2022-11-29T19:28:40.049Z,36.47
2022-11-29T19:32:57.363Z,34.27
2022-11-29T19:37:11.886Z,36.93
2022-11-29T19:41:47.429Z,36.50
2022-11-29T19:46:04.078Z,35.40
2022-11-29T19:50:34.413Z,36.80
2022-11-29T19:55:56.303Z,36.53
2022-11-29T20:00:22.579Z,38.70
2022-11-29T20:04:33.154Z,41.97
2022-11-29T20:08:39.149Z,39.60
2022-11-29T20:12:41.128Z,40.93
2022-11-29T20:16:53.374Z,41.63
2022-11-29T20:21:24.116Z,37.97
2022-11-29T20:25:29.143Z,35.77
2022-11-29T20:29:33.611Z,39.27
2022-11-29T20:33:36.042Z,39.10
2022-11-29T20:38:17.282Z,37.47
2022-11-29T20:42:58.661Z,37.33
2022-11-29T20:47:03.530Z,38.27
2022-11-29T20:51:08.461Z,38.50
2022-11-29T20:55:10.475Z,38.93
2022-11-29T20:59:12.500Z,37.00
2022-11-29T21:03:17.556Z,37.17
2022-11-29T21:08:18.562Z,37.27
2022-11-29T21:12:38.684Z,41.17
2022-11-29T21:17:11.099Z,38.33
2022-11-29T21:21:47.683Z,38.50
2022-11-29T21:26:10.339Z,36.97
2022-11-29T21:30:24.185Z,36.30
2022-11-29T21:34:28.660Z,32.07
2022-11-29T21:38:32.879Z,38.27
2022-11-29T21:47:03.099Z,34.07
2022-11-29T21:51:10.191Z,34.13
2022-11-29T21:55:12.232Z,31.97
2022-11-29T21:59:28.465Z,33.40
2022-11-29T22:03:32.210Z,33.63
2022-11-29T22:07:34.386Z,33.93
2022-11-29T22:11:37.685Z,31.30
2022-11-29T22:15:39.679Z,32.20
2022-11-29T22:19:43.736Z,32.63
2022-11-29T22:23:45.620Z,33.77
2022-11-29T22:27:49.609Z,32.33
2022-11-29T22:31:53.676Z,32.07
2022-11-29T22:35:55.558Z,30.63
2022-11-29T22:39:57.790Z,33.93
2022-11-29T22:43:59.762Z,34.83
2022-11-29T22:48:01.659Z,33.77
2022-11-29T22:52:03.572Z,32.50
2022-11-29T22:56:07.622Z,34.47
2022-11-29T23:00:11.075Z,31.73
2022-11-29T23:04:14.061Z,31.07
2022-11-29T23:08:19.191Z,34.40
2022-11-29T23:12:21.057Z,32.53
2022-11-29T23:16:28.106Z,30.97
2022-11-29T23:20:30.233Z,31.53
2022-11-29T23:24:32.215Z,33.50
2022-11-29T23:28:34.470Z,32.20
2022-11-29T23:32:36.349Z,32.73
2022-11-29T23:36:38.213Z,31.83
2022-11-29T23:40:40.195Z,31.83
2022-11-29T23:44:42.103Z,32.90
2022-11-29T23:48:44.274Z,30.30
2022-11-29T23:52:51.629Z,29.47
2022-11-29T23:56:53.507Z,30.23
